Time;durP1;ratioP1;P1;durP2;ratioP2;P2;SDS_P1;SDS_P2;PMS_P1;PMS_P2;Temp;Humidity;BMP_temperature;BMP_pressure;BME280_temperature;BME280_humidity;BME280_pressure;Samples;Min_cycle;Max_cycle;Signal;HPM_P1;HPM_P2
2020/12/31 00:00:16;;;;;;;2.08;1.60;;;2.90;1.00;;;;;;4941520;28;20216;-73
2020/12/31 00:02:43;;;;;;;2.13;1.90;;;2.80;1.00;;;;;;4946570;28;20227;-72
2020/12/31 00:05:11;;;;;;;4.70;2.90;;;2.80;1.00;;;;;;4944200;28;20295;-72
2020/12/31 00:07:38;;;;;;;2.35;2.15;;;2.80;1.00;;;;;;4943320;28;20467;-76
2020/12/31 00:10:06;;;;;;;2.30;2.10;;;2.70;1.00;;;;;;4948156;28;20217;-75
2020/12/31 00:12:33;;;;;;;1.65;1.55;;;2.80;1.00;;;;;;4961042;28;20237;-72
2020/12/31 00:15:01;;;;;;;3.35;1.80;;;2.60;1.00;;;;;;4949037;28;20268;-74
2020/12/31 00:17:28;;;;;;;1.83;1.73;;;2.60;1.00;;;;;;4946803;28;20232;-73
2020/12/31 00:19:55;;;;;;;1.83;1.48;;;2.60;1.00;;;;;;4961619;28;20908;-72
2020/12/31 00:22:22;;;;;;;1.30;1.20;;;2.50;1.00;;;;;;4944469;28;20318;-72
2020/12/31 00:24:49;;;;;;;1.60;1.50;;;2.30;1.00;;;;;;4943754;28;20219;-72
2020/12/31 00:27:18;;;;;;;2.75;1.30;;;2.30;1.00;;;;;;4946566;28;20667;-72
2020/12/31 00:29:45;;;;;;;1.35;1.10;;;2.40;1.00;;;;;;4946824;28;20208;-72
2020/12/31 00:32:13;;;;;;;1.48;1.30;;;2.50;1.00;;;;;;4944227;28;20289;-72
2020/12/31 00:34:40;;;;;;;1.60;1.50;;;2.50;1.00;;;;;;4945310;28;20203;-72
2020/12/31 00:37:08;;;;;;;1.50;1.40;;;2.50;1.00;;;;;;4944820;28;20217;-72
2020/12/31 00:39:35;;;;;;;1.73;1.63;;;2.50;1.00;;;;;;4951273;28;20621;-72
2020/12/31 00:42:02;;;;;;;1.85;1.70;;;2.40;1.00;;;;;;4947060;28;20235;-71
2020/12/31 00:44:29;;;;;;;2.75;2.05;;;2.40;1.00;;;;;;4945290;28;20238;-72
2020/12/31 00:46:56;;;;;;;1.92;1.60;;;2.50;1.00;;;;;;4945084;28;20210;-71
2020/12/31 00:49:24;;;;;;;1.80;1.60;;;2.60;1.00;;;;;;4943519;28;20242;-72
2020/12/31 00:51:51;;;;;;;3.63;2.20;;;2.60;1.00;;;;;;4943550;28;20230;-72
2020/12/31 00:54:18;;;;;;;2.45;1.95;;;2.70;1.00;;;;;;4946034;29;20211;-72
2020/12/31 00:56:45;;;;;;;2.05;1.85;;;2.60;1.00;;;;;;4941941;28;20270;-73
2020/12/31 00:59:12;;;;;;;3.17;2.55;;;2.60;1.00;;;;;;4944573;28;20232;-71
2020/12/31 01:01:39;;;;;;;2.13;1.90;;;2.60;1.00;;;;;;4944311;28;20231;-72
2020/12/31 01:04:07;;;;;;;2.58;2.38;;;2.50;1.00;;;;;;4946016;28;20796;-71
2020/12/31 01:06:37;;;;;;;2.40;1.80;;;2.50;1.00;;;;;;4944638;28;20221;-72
2020/12/31 01:09:08;;;;;;;2.50;2.28;;;2.60;1.00;;;;;;4945007;28;20212;-72
2020/12/31 01:11:36;;;;;;;2.67;2.40;;;2.60;1.00;;;;;;4945570;28;20246;-71
2020/12/31 01:14:03;;;;;;;2.58;2.38;;;2.60;1.00;;;;;;4945723;28;20210;-72
2020/12/31 01:16:31;;;;;;;2.60;2.25;;;2.60;1.00;;;;;;4945986;28;20207;-72
2020/12/31 01:18:58;;;;;;;2.50;2.30;;;2.60;1.00;;;;;;4945642;28;20221;-73
2020/12/31 01:21:25;;;;;;;3.17;2.88;;;2.70;1.00;;;;;;4943738;28;20294;-73
2020/12/31 01:23:53;;;;;;;2.55;2.35;;;2.80;1.00;;;;;;4948082;28;20213;-71
2020/12/31 01:26:30;;;;;;;4.40;2.47;;;2.80;1.00;;;;;;4944307;28;20298;-72
2020/12/31 01:28:57;;;;;;;2.97;2.78;;;2.70;1.00;;;;;;4946373;29;20720;-72
2020/12/31 01:31:24;;;;;;;2.63;2.42;;;2.70;1.00;;;;;;4946271;28;21040;-71
2020/12/31 01:33:51;;;;;;;2.63;2.40;;;2.80;1.00;;;;;;4947046;28;20212;-72
2020/12/31 01:36:18;;;;;;;3.00;2.25;;;2.70;1.00;;;;;;4945524;28;20230;-71
2020/12/31 01:38:46;;;;;;;2.60;2.20;;;2.60;1.00;;;;;;4942446;28;20288;-73
2020/12/31 01:41:14;;;;;;;2.35;2.15;;;2.60;1.00;;;;;;4945905;28;20233;-71
2020/12/31 01:43:41;;;;;;;2.30;2.10;;;2.50;1.00;;;;;;4941879;28;20226;-72
2020/12/31 01:46:11;;;;;;;3.50;2.63;;;2.60;1.00;;;;;;4938283;28;20204;-72
2020/12/31 01:48:39;;;;;;;3.00;2.70;;;2.60;1.00;;;;;;4959850;28;20198;-72
2020/12/31 01:51:07;;;;;;;3.45;3.15;;;2.60;1.00;;;;;;4940478;28;20710;-71
2020/12/31 01:53:35;;;;;;;2.60;2.40;;;2.60;1.00;;;;;;4946209;28;20290;-71
2020/12/31 01:56:06;;;;;;;3.15;2.85;;;2.60;1.00;;;;;;4959307;28;20206;-72
2020/12/31 01:58:35;;;;;;;5.93;3.22;;;2.60;1.00;;;;;;4943370;28;20237;-72
2020/12/31 02:01:03;;;;;;;2.92;2.30;;;2.60;1.00;;;;;;4939575;28;20237;-72
2020/12/31 02:03:30;;;;;;;2.88;2.67;;;2.60;1.00;;;;;;4944582;28;20266;-72
2020/12/31 02:05:57;;;;;;;3.28;2.67;;;2.70;99.90;;;;;;4947410;28;20781;-72
2020/12/31 02:08:24;;;;;;;4.00;3.40;;;2.60;99.90;;;;;;4945537;28;20203;-72
2020/12/31 02:10:51;;;;;;;4.68;2.35;;;2.60;99.90;;;;;;4945560;28;20273;-72
2020/12/31 02:13:19;;;;;;;5.45;3.35;;;2.40;99.90;;;;;;4946820;29;20290;-72
2020/12/31 02:15:48;;;;;;;4.90;2.75;;;2.40;99.90;;;;;;4947796;28;20218;-71
2020/12/31 02:18:15;;;;;;;3.65;3.35;;;2.40;99.90;;;;;;4947965;28;20229;-73
2020/12/31 02:20:42;;;;;;;3.05;2.75;;;2.50;99.90;;;;;;4943757;28;20205;-71
2020/12/31 02:23:11;;;;;;;4.15;2.50;;;2.50;99.90;;;;;;4943028;28;20236;-73
2020/12/31 02:25:38;;;;;;;3.28;2.83;;;2.50;49.30;;;;;;4946075;28;20557;-74
2020/12/31 02:28:05;;;;;;;3.03;2.80;;;2.40;99.90;;;;;;4947655;28;20234;-72
2020/12/31 02:30:32;;;;;;;4.18;2.22;;;2.40;99.90;;;;;;4944579;28;20792;-73
2020/12/31 02:32:59;;;;;;;2.92;2.58;;;2.40;99.90;;;;;;4947008;28;20803;-72
2020/12/31 02:35:26;;;;;;;3.72;2.60;;;2.40;99.90;;;;;;4943604;28;20212;-71
2020/12/31 02:37:53;;;;;;;5.00;3.63;;;2.40;62.90;;;;;;4946611;28;20713;-71
2020/12/31 02:40:21;;;;;;;4.20;2.70;;;2.40;81.50;;;;;;4945522;28;20207;-69
2020/12/31 02:42:48;;;;;;;3.88;3.22;;;2.40;97.30;;;;;;4945457;28;20254;-70
2020/12/31 02:45:15;;;;;;;3.25;2.88;;;2.40;27.00;;;;;;4947546;28;20286;-69
2020/12/31 02:47:43;;;;;;;2.50;2.30;;;2.50;99.90;;;;;;4946025;28;20212;-70
2020/12/31 02:50:11;;;;;;;5.13;3.10;;;2.60;1.00;;;;;;4944659;28;20221;-71
2020/12/31 02:52:38;;;;;;;3.08;2.60;;;2.60;99.90;;;;;;4950186;28;20234;-69
2020/12/31 02:55:05;;;;;;;2.78;2.55;;;2.60;99.90;;;;;;4950314;28;20218;-69
2020/12/31 02:57:33;;;;;;;3.08;2.78;;;2.60;1.00;;;;;;4950654;28;20216;-69
2020/12/31 03:00:00;;;;;;;4.90;2.65;;;2.60;99.90;;;;;;4942906;29;20214;-70
2020/12/31 03:02:27;;;;;;;2.95;2.60;;;2.50;1.00;;;;;;4950299;28;20240;-73
2020/12/31 03:04:54;;;;;;;3.03;2.63;;;2.30;1.00;;;;;;4949197;28;20320;-70
2020/12/31 03:07:21;;;;;;;2.53;2.22;;;2.20;1.00;;;;;;4950370;28;20212;-69
2020/12/31 03:09:48;;;;;;;3.03;2.05;;;2.10;99.90;;;;;;4948231;28;20317;-70
2020/12/31 03:12:15;;;;;;;2.15;1.95;;;2.20;1.00;;;;;;4949829;28;20244;-70
2020/12/31 03:14:43;;;;;;;3.78;2.13;;;2.20;99.90;;;;;;4949089;28;20214;-69
2020/12/31 03:17:10;;;;;;;3.08;2.47;;;2.30;99.90;;;;;;4948956;28;20229;-70
2020/12/31 03:19:37;;;;;;;2.83;2.63;;;2.20;99.90;;;;;;4949513;28;20222;-69
2020/12/31 03:22:05;;;;;;;3.25;2.63;;;2.20;99.90;;;;;;4947612;28;20229;-70
2020/12/31 03:24:32;;;;;;;2.65;2.35;;;2.20;1.00;;;;;;4949738;28;20274;-70
2020/12/31 03:26:59;;;;;;;2.15;1.95;;;2.10;99.90;;;;;;4944629;28;20214;-70
2020/12/31 03:29:26;;;;;;;4.25;2.10;;;2.10;1.00;;;;;;4948520;28;20213;-69
2020/12/31 03:31:54;;;;;;;2.63;1.80;;;2.10;33.90;;;;;;4950037;28;20286;-69
2020/12/31 03:34:21;;;;;;;2.22;2.00;;;2.00;33.80;;;;;;4955608;28;20210;-70
2020/12/31 03:36:48;;;;;;;4.15;2.00;;;2.10;99.90;;;;;;4948938;28;20206;-71
2020/12/31 03:39:15;;;;;;;2.60;2.08;;;2.10;1.00;;;;;;4953887;28;20315;-70
2020/12/31 03:41:43;;;;;;;2.22;2.05;;;2.20;99.90;;;;;;4953344;28;20248;-69
2020/12/31 03:44:10;;;;;;;3.00;2.03;;;2.20;1.00;;;;;;4949927;28;20202;-70
2020/12/31 03:46:37;;;;;;;3.03;2.05;;;2.20;1.00;;;;;;4950162;28;20212;-73
2020/12/31 03:49:05;;;;;;;2.38;2.08;;;2.20;1.00;;;;;;4951102;28;20269;-69
2020/12/31 03:51:32;;;;;;;2.92;2.40;;;2.30;1.00;;;;;;4946307;28;20251;-69
2020/12/31 03:53:59;;;;;;;3.38;1.73;;;2.30;99.90;;;;;;4964727;28;20292;-69
2020/12/31 03:56:26;;;;;;;2.35;2.15;;;2.40;1.00;;;;;;4949994;28;20217;-69
2020/12/31 03:58:53;;;;;;;2.80;2.20;;;2.50;95.20;;;;;;4948164;28;20304;-70
2020/12/31 04:01:27;;;;;;;2.72;2.00;;;2.60;1.00;;;;;;4944983;28;20277;-69
2020/12/31 04:03:54;;;;;;;2.10;1.88;;;2.70;99.90;;;;;;4946823;28;20210;-70
2020/12/31 04:06:22;;;;;;;1.70;1.60;;;2.70;1.00;;;;;;4948708;28;20669;-69
2020/12/31 04:08:49;;;;;;;1.95;1.67;;;2.50;99.90;;;;;;4947961;28;20616;-70
2020/12/31 04:11:16;;;;;;;2.72;1.70;;;2.30;1.00;;;;;;4950339;28;20229;-70
2020/12/31 04:13:43;;;;;;;2.17;1.70;;;2.10;99.90;;;;;;4947134;28;20272;-71
2020/12/31 04:16:11;;;;;;;2.17;1.90;;;2.10;94.00;;;;;;4949447;28;20208;-70
2020/12/31 04:18:38;;;;;;;2.17;1.98;;;2.10;1.00;;;;;;4948129;28;20275;-70
2020/12/31 04:21:05;;;;;;;2.20;1.80;;;2.10;99.90;;;;;;4946856;28;20246;-69
2020/12/31 04:23:33;;;;;;;1.40;1.30;;;2.10;1.00;;;;;;4949129;28;20605;-69
2020/12/31 04:26:00;;;;;;;1.85;1.65;;;2.00;1.00;;;;;;4948906;28;20287;-69
2020/12/31 04:28:27;;;;;;;1.90;1.40;;;2.10;99.90;;;;;;4944812;28;20263;-70
2020/12/31 04:30:54;;;;;;;2.05;1.52;;;2.00;1.00;;;;;;4949785;28;20227;-70
2020/12/31 04:33:21;;;;;;;1.65;1.55;;;1.90;99.90;;;;;;4949314;28;20206;-70
2020/12/31 04:35:48;;;;;;;1.90;1.60;;;1.80;99.90;;;;;;4950321;28;20699;-70
2020/12/31 04:38:15;;;;;;;2.13;1.33;;;1.70;1.00;;;;;;4951580;28;20726;-70
2020/12/31 04:40:44;;;;;;;2.10;1.73;;;1.70;99.90;;;;;;4955115;28;20217;-70
2020/12/31 04:43:11;;;;;;;2.35;1.65;;;1.80;79.30;;;;;;4948481;28;20226;-70
2020/12/31 04:45:40;;;;;;;2.65;2.30;;;1.70;99.90;;;;;;4946307;28;20254;-70
2020/12/31 04:48:10;;;;;;;1.55;1.45;;;1.70;1.00;;;;;;4950028;28;20203;-70
2020/12/31 04:50:40;;;;;;;1.80;1.70;;;1.60;99.90;;;;;;4959564;28;20265;-73
2020/12/31 04:53:09;;;;;;;2.42;2.22;;;1.60;99.90;;;;;;4945638;28;20213;-71
2020/12/31 04:55:42;;;;;;;3.20;1.88;;;1.50;1.00;;;;;;4949318;28;20281;-70
2020/12/31 04:58:11;;;;;;;2.95;1.40;;;1.40;99.90;;;;;;4948256;28;20646;-71
2020/12/31 05:00:38;;;;;;;2.30;1.92;;;1.40;99.90;;;;;;4948495;28;20243;-71
2020/12/31 05:03:06;;;;;;;1.85;1.50;;;1.40;99.90;;;;;;4952920;28;20299;-70
2020/12/31 05:05:33;;;;;;;2.20;1.60;;;1.30;1.00;;;;;;4950919;28;20216;-69
2020/12/31 05:08:00;;;;;;;1.92;1.50;;;1.40;1.00;;;;;;4946459;28;20612;-70
2020/12/31 05:10:28;;;;;;;2.30;1.80;;;1.40;99.90;;;;;;4965953;28;20222;-70
2020/12/31 05:12:59;;;;;;;2.22;1.42;;;1.40;99.90;;;;;;4949189;28;20973;-70
2020/12/31 05:15:34;;;;;;;1.70;1.60;;;1.40;99.90;;;;;;4947846;28;20226;-70
2020/12/31 05:18:17;;;;;;;1.80;1.50;;;1.50;99.90;;;;;;4947078;28;20214;-72
2020/12/31 05:20:46;;;;;;;2.47;1.55;;;1.50;99.90;;;;;;4948339;28;20674;-72
2020/12/31 05:23:14;;;;;;;1.98;1.50;;;1.50;1.00;;;;;;4951836;28;20685;-72
2020/12/31 05:25:41;;;;;;;2.05;1.52;;;1.40;1.00;;;;;;4954665;28;20792;-71
2020/12/31 05:28:25;;;;;;;1.88;1.27;;;1.30;86.60;;;;;;4946243;28;20204;-70
2020/12/31 05:30:55;;;;;;;1.80;1.63;;;1.20;99.90;;;;;;4946082;28;20660;-71
2020/12/31 05:33:27;;;;;;;2.20;2.00;;;1.30;1.00;;;;;;4950280;28;20342;-70
2020/12/31 05:36:15;;;;;;;2.17;1.80;;;1.30;1.00;;;;;;4947443;28;20288;-70
2020/12/31 05:38:44;;;;;;;2.45;1.90;;;1.30;99.90;;;;;;4959783;28;20240;-69
2020/12/31 05:41:11;;;;;;;2.38;1.92;;;1.30;1.00;;;;;;4945775;28;20246;-70
2020/12/31 05:43:41;;;;;;;2.10;1.90;;;1.30;24.00;;;;;;4947306;28;20276;-71
2020/12/31 05:46:14;;;;;;;1.95;1.75;;;1.30;95.60;;;;;;4941048;28;20222;-70
2020/12/31 05:48:41;;;;;;;2.00;1.65;;;1.30;99.90;;;;;;4946403;28;20208;-71
2020/12/31 05:51:22;;;;;;;2.92;1.98;;;1.20;1.00;;;;;;4938797;28;20767;-72
2020/12/31 05:53:50;;;;;;;3.50;2.28;;;1.20;1.00;;;;;;4949365;28;20325;-69
2020/12/31 05:56:18;;;;;;;2.33;2.13;;;1.20;58.40;;;;;;4947385;28;20218;-70
2020/12/31 05:58:47;;;;;;;2.45;2.00;;;1.10;99.90;;;;;;4946144;28;20281;-71
2020/12/31 06:01:15;;;;;;;2.10;1.63;;;1.10;1.00;;;;;;4942226;28;20243;-69
2020/12/31 06:03:51;;;;;;;1.63;1.52;;;1.20;99.90;;;;;;4947501;28;20224;-70
2020/12/31 06:06:20;;;;;;;1.60;1.50;;;1.20;1.00;;;;;;4945531;28;20682;-69
2020/12/31 06:08:56;;;;;;;2.53;2.33;;;1.30;1.00;;;;;;4947549;28;20632;-73
2020/12/31 06:11:32;;;;;;;3.03;2.00;;;1.30;99.90;;;;;;4957953;28;20243;-70
2020/12/31 06:14:02;;;;;;;2.13;2.03;;;1.20;1.00;;;;;;4950636;28;20275;-72
2020/12/31 06:16:37;;;;;;;2.08;1.88;;;1.30;1.00;;;;;;4947139;28;20205;-70
2020/12/31 06:19:29;;;;;;;2.97;1.80;;;1.30;1.00;;;;;;4945013;28;20645;-70
2020/12/31 06:22:04;;;;;;;2.58;1.95;;;1.20;1.00;;;;;;4944274;28;20635;-70
2020/12/31 06:24:36;;;;;;;2.60;2.17;;;1.20;1.00;;;;;;4950513;28;20238;-70
2020/12/31 06:27:09;;;;;;;2.50;1.63;;;1.30;5.30;;;;;;4947780;28;20232;-70
2020/12/31 06:29:43;;;;;;;2.03;1.67;;;1.40;99.90;;;;;;4950957;28;20212;-70
2020/12/31 06:32:27;;;;;;;3.28;2.03;;;1.40;1.00;;;;;;4955408;28;20243;-71
2020/12/31 06:35:03;;;;;;;2.15;1.80;;;1.40;1.00;;;;;;4946751;28;20227;-70
2020/12/31 06:37:31;;;;;;;2.50;2.30;;;1.40;1.00;;;;;;4953128;28;20257;-69
2020/12/31 06:40:24;;;;;;;2.60;1.92;;;1.50;99.90;;;;;;4958554;28;20229;-69
2020/12/31 06:43:05;;;;;;;2.45;2.15;;;1.50;99.90;;;;;;4963876;28;20794;-70
2020/12/31 06:45:37;;;;;;;2.08;1.50;;;1.40;1.00;;;;;;4950316;28;20296;-71
2020/12/31 06:48:39;;;;;;;2.80;1.95;;;1.40;99.90;;;;;;4951167;28;20204;-71
2020/12/31 06:51:08;;;;;;;2.33;2.13;;;1.40;99.90;;;;;;4953198;28;22461;-67
2020/12/31 06:53:37;;;;;;;2.55;2.08;;;1.50;1.00;;;;;;4953133;28;20215;-69
2020/12/31 06:56:06;;;;;;;2.30;1.83;;;1.40;1.00;;;;;;4948972;28;20203;-70
2020/12/31 06:58:34;;;;;;;1.80;1.63;;;1.40;49.10;;;;;;4951433;28;20227;-69
2020/12/31 07:01:02;;;;;;;2.60;2.40;;;1.40;1.00;;;;;;4948338;28;20485;-69
2020/12/31 07:03:46;;;;;;;4.53;2.95;;;1.40;99.90;;;;;;4952820;28;20215;-70
2020/12/31 07:06:33;;;;;;;2.45;2.20;;;1.50;1.00;;;;;;4944262;28;20213;-69
2020/12/31 07:09:24;;;;;;;5.57;2.45;;;1.50;1.00;;;;;;4948106;28;20368;-69
2020/12/31 07:11:58;;;;;;;3.03;2.28;;;1.60;1.00;;;;;;4950815;28;20240;-69
2020/12/31 07:14:26;;;;;;;2.17;1.98;;;1.50;99.90;;;;;;4950899;28;20225;-69
2020/12/31 07:17:01;;;;;;;4.40;2.50;;;1.40;1.00;;;;;;4947342;28;20695;-72
2020/12/31 07:19:43;;;;;;;3.10;2.22;;;1.40;99.90;;;;;;4947442;28;20236;-71
2020/12/31 07:22:19;;;;;;;2.70;2.50;;;1.60;1.00;;;;;;4948580;28;20269;-70
2020/12/31 07:24:57;;;;;;;2.10;1.95;;;1.60;1.00;;;;;;4947392;28;20228;-72
2020/12/31 07:27:30;;;;;;;1.80;1.70;;;1.60;97.20;;;;;;4942316;28;20235;-73
2020/12/31 07:30:17;;;;;;;3.88;2.70;;;1.70;99.90;;;;;;4944651;28;20209;-72
2020/12/31 07:32:55;;;;;;;4.00;2.38;;;1.90;1.00;;;;;;4944396;28;20288;-71
2020/12/31 07:35:29;;;;;;;3.65;2.67;;;2.00;99.90;;;;;;4943319;28;20223;-70
2020/12/31 07:37:58;;;;;;;2.40;2.08;;;2.10;99.90;;;;;;4951985;28;20225;-69
2020/12/31 07:40:31;;;;;;;3.42;2.92;;;2.30;99.90;;;;;;4948649;28;20287;-71
2020/12/31 07:42:59;;;;;;;2.67;2.47;;;2.40;5.20;;;;;;4946454;28;20230;-72
2020/12/31 07:45:27;;;;;;;3.20;2.40;;;2.50;1.00;;;;;;4953861;28;20490;-71
2020/12/31 07:47:56;;;;;;;3.22;2.47;;;2.40;1.00;;;;;;4947066;28;20471;-71
2020/12/31 07:50:23;;;;;;;3.40;2.67;;;2.40;99.90;;;;;;4948821;28;20256;-70
2020/12/31 07:52:52;;;;;;;3.33;2.50;;;2.40;99.90;;;;;;4947115;28;20230;-70
2020/12/31 07:55:19;;;;;;;3.88;2.17;;;2.50;99.90;;;;;;4944848;28;20209;-71
2020/12/31 07:57:47;;;;;;;2.30;2.10;;;2.50;99.90;;;;;;4948243;28;20222;-71
2020/12/31 08:00:15;;;;;;;3.42;2.40;;;2.50;98.80;;;;;;4953764;28;20235;-71
2020/12/31 08:02:47;;;;;;;2.40;2.03;;;2.60;99.90;;;;;;4950700;28;20294;-73
2020/12/31 08:05:15;;;;;;;2.70;2.50;;;2.70;55.20;;;;;;4965902;28;20704;-73
2020/12/31 08:07:43;;;;;;;3.22;2.35;;;2.50;1.00;;;;;;4951288;28;20308;-71
2020/12/31 08:10:11;;;;;;;3.08;2.30;;;2.50;99.90;;;;;;4945036;28;20227;-72
2020/12/31 08:12:40;;;;;;;2.75;2.53;;;2.40;99.90;;;;;;4948187;28;20244;-73
2020/12/31 08:15:08;;;;;;;2.50;2.30;;;2.50;38.60;;;;;;4962476;28;20217;-71
2020/12/31 08:17:35;;;;;;;2.85;2.58;;;2.40;99.90;;;;;;4949499;28;20249;-72
2020/12/31 08:20:06;;;;;;;4.88;2.33;;;2.60;99.90;;;;;;4947744;28;20228;-73
2020/12/31 08:22:40;;;;;;;2.83;2.53;;;2.50;99.90;;;;;;4961574;28;20744;-72
2020/12/31 08:25:14;;;;;;;2.70;2.38;;;2.60;99.90;;;;;;4947522;28;20210;-72
2020/12/31 08:27:42;;;;;;;2.53;2.33;;;2.60;91.00;;;;;;4949487;28;20222;-74
2020/12/31 08:30:10;;;;;;;3.40;2.60;;;2.60;56.00;;;;;;4946302;28;20217;-73
2020/12/31 08:32:55;;;;;;;4.05;2.35;;;2.70;16.20;;;;;;4950414;28;20230;-73
2020/12/31 08:35:25;;;;;;;2.78;2.58;;;2.50;37.90;;;;;;4949835;28;20227;-71
2020/12/31 08:37:59;;;;;;;2.88;2.65;;;2.50;99.90;;;;;;4958661;28;20791;-70
2020/12/31 08:40:30;;;;;;;3.03;2.15;;;2.50;99.90;;;;;;4944663;28;20238;-71
2020/12/31 08:42:59;;;;;;;3.00;2.65;;;2.40;99.90;;;;;;4948248;28;20237;-75
2020/12/31 08:45:28;;;;;;;2.60;2.28;;;2.40;99.90;;;;;;4943945;28;20213;-74
2020/12/31 08:48:12;;;;;;;2.13;1.88;;;2.40;99.90;;;;;;4942106;28;20217;-71
2020/12/31 08:50:43;;;;;;;2.97;2.67;;;2.40;99.90;;;;;;4941239;28;20212;-71
2020/12/31 08:53:11;;;;;;;3.78;2.92;;;2.50;99.90;;;;;;4944221;28;20209;-74
2020/12/31 08:55:39;;;;;;;2.63;2.42;;;2.40;99.90;;;;;;4955025;28;20211;-73
2020/12/31 08:58:17;;;;;;;3.40;3.10;;;2.60;99.90;;;;;;4945816;28;20484;-71
2020/12/31 09:00:45;;;;;;;3.13;2.92;;;2.70;99.90;;;;;;4941756;28;20235;-76
2020/12/31 09:03:19;;;;;;;3.38;2.70;;;2.70;99.90;;;;;;4947350;28;20234;-72
2020/12/31 09:06:00;;;;;;;2.67;2.33;;;2.60;99.90;;;;;;4943349;29;20457;-71
2020/12/31 09:08:27;;;;;;;3.00;2.80;;;2.50;99.90;;;;;;4941938;28;20220;-77
2020/12/31 09:11:04;;;;;;;2.42;2.20;;;2.60;99.90;;;;;;4944143;28;20572;-75
2020/12/31 09:13:35;;;;;;;4.18;2.80;;;2.60;99.90;;;;;;4944590;28;20255;-71
2020/12/31 09:16:07;;;;;;;2.53;2.33;;;2.60;99.90;;;;;;4944663;28;20302;-73
2020/12/31 09:18:34;;;;;;;2.80;2.50;;;2.60;41.90;;;;;;4945868;28;20272;-75
2020/12/31 09:21:02;;;;;;;3.20;2.90;;;2.60;99.90;;;;;;4944722;28;20322;-71
2020/12/31 09:23:29;;;;;;;2.97;2.78;;;2.60;99.90;;;;;;4946261;28;20216;-72
2020/12/31 09:25:57;;;;;;;5.40;2.72;;;2.60;99.90;;;;;;4946452;28;20826;-71
2020/12/31 09:28:26;;;;;;;3.15;2.60;;;2.80;99.90;;;;;;4945761;28;20218;-71
2020/12/31 09:30:53;;;;;;;3.03;2.83;;;2.90;32.50;;;;;;4948362;28;20306;-72
2020/12/31 09:33:23;;;;;;;3.70;2.85;;;3.00;1.00;;;;;;4938305;28;20474;-72
2020/12/31 09:35:51;;;;;;;3.33;2.95;;;3.00;99.90;;;;;;4941628;28;20211;-71
2020/12/31 09:38:18;;;;;;;3.10;2.80;;;3.00;79.10;;;;;;4942316;28;20239;-73
2020/12/31 09:40:46;;;;;;;3.55;2.75;;;2.90;1.00;;;;;;4942066;28;20636;-75
2020/12/31 09:43:14;;;;;;;2.63;2.42;;;2.80;99.90;;;;;;4938651;28;21010;-75
2020/12/31 09:45:42;;;;;;;2.70;2.50;;;2.60;1.00;;;;;;4958853;28;20213;-72
2020/12/31 09:48:10;;;;;;;2.47;2.28;;;2.60;1.00;;;;;;4945719;28;20766;-71
2020/12/31 09:50:37;;;;;;;3.25;2.65;;;2.60;1.00;;;;;;4942275;28;20251;-68
2020/12/31 09:53:04;;;;;;;2.72;2.53;;;2.50;1.00;;;;;;4942987;28;20223;-69
2020/12/31 09:55:43;;;;;;;2.90;2.60;;;2.50;1.00;;;;;;4948245;28;20711;-69
2020/12/31 09:58:10;;;;;;;3.58;3.28;;;2.50;1.00;;;;;;4940233;28;20278;-69
2020/12/31 10:00:37;;;;;;;4.45;2.50;;;2.60;1.00;;;;;;4950440;28;20552;-72
2020/12/31 10:03:05;;;;;;;3.38;3.13;;;2.70;1.00;;;;;;4938214;28;20247;-70
2020/12/31 10:05:32;;;;;;;2.80;2.50;;;2.80;1.00;;;;;;4943268;28;20304;-71
2020/12/31 10:07:59;;;;;;;2.55;2.35;;;3.00;1.00;;;;;;4938548;28;20231;-70
2020/12/31 10:10:27;;;;;;;3.10;2.80;;;3.00;1.00;;;;;;4945471;28;20234;-75
2020/12/31 10:12:54;;;;;;;3.47;3.00;;;3.30;1.00;;;;;;4937041;28;21297;-71
2020/12/31 10:15:22;;;;;;;3.45;2.30;;;3.30;1.00;;;;;;4942530;28;22384;-72
2020/12/31 10:17:49;;;;;;;3.35;2.40;;;3.20;1.00;;;;;;4940834;28;20216;-73
2020/12/31 10:20:17;;;;;;;3.83;2.58;;;3.20;33.00;;;;;;4939948;28;20248;-71
2020/12/31 10:22:44;;;;;;;2.92;2.72;;;3.20;99.90;;;;;;4935607;28;20233;-72
2020/12/31 10:25:11;;;;;;;4.35;2.78;;;3.10;99.90;;;;;;4942253;28;20220;-71
2020/12/31 10:27:39;;;;;;;2.42;2.22;;;2.90;99.90;;;;;;4950867;28;20212;-74
2020/12/31 10:30:06;;;;;;;2.85;2.50;;;2.80;1.00;;;;;;4947785;28;20757;-72
2020/12/31 10:32:33;;;;;;;3.40;2.60;;;2.90;1.00;;;;;;4947823;28;20226;-72
2020/12/31 10:35:00;;;;;;;2.63;2.38;;;2.70;99.90;;;;;;4947312;28;20282;-75
2020/12/31 10:37:29;;;;;;;2.53;2.33;;;2.60;99.90;;;;;;4948231;28;20618;-73
2020/12/31 10:39:56;;;;;;;1.90;1.80;;;2.30;1.00;;;;;;4947278;28;20232;-71
2020/12/31 10:42:24;;;;;;;3.60;2.85;;;2.10;1.00;;;;;;4951922;28;20235;-74
2020/12/31 10:44:51;;;;;;;4.63;2.95;;;2.00;12.30;;;;;;4955342;28;20711;-73
2020/12/31 10:47:19;;;;;;;5.05;3.10;;;2.00;24.20;;;;;;4948111;28;20216;-72
2020/12/31 10:49:46;;;;;;;3.50;3.20;;;1.80;20.00;;;;;;4947805;28;20230;-73
2020/12/31 10:52:14;;;;;;;4.18;2.80;;;1.70;37.00;;;;;;4948010;28;20297;-72
2020/12/31 10:54:43;;;;;;;4.80;3.78;;;1.80;55.00;;;;;;4956405;28;20218;-73
2020/12/31 10:57:11;;;;;;;3.33;3.05;;;1.90;58.60;;;;;;4957698;28;20213;-77
2020/12/31 10:59:38;;;;;;;3.42;3.00;;;2.00;50.70;;;;;;4957991;28;20233;-71
2020/12/31 11:02:05;;;;;;;2.60;2.30;;;2.20;27.80;;;;;;4953231;28;20592;-72
2020/12/31 11:04:32;;;;;;;3.90;3.30;;;2.30;16.00;;;;;;4960731;28;20347;-73
2020/12/31 11:07:00;;;;;;;3.50;2.83;;;2.40;2.60;;;;;;4952006;28;20292;-75
2020/12/31 11:09:29;;;;;;;5.10;3.28;;;2.50;1.00;;;;;;4954155;28;20303;-76
2020/12/31 11:11:57;;;;;;;3.60;3.30;;;2.60;1.00;;;;;;4951933;28;20311;-73
2020/12/31 11:14:25;;;;;;;2.60;2.40;;;2.80;1.00;;;;;;4962027;28;20216;-74
2020/12/31 11:16:52;;;;;;;3.28;2.30;;;2.90;1.00;;;;;;4957303;28;20209;-78
2020/12/31 11:19:20;;;;;;;2.95;2.47;;;2.80;1.00;;;;;;4951880;28;20310;-73
2020/12/31 11:21:50;;;;;;;3.00;2.80;;;2.80;1.00;;;;;;4950199;28;20244;-72
2020/12/31 11:24:18;;;;;;;2.78;2.15;;;2.70;1.00;;;;;;4961341;28;20225;-73
2020/12/31 11:26:45;;;;;;;4.85;2.83;;;2.70;1.00;;;;;;4956117;28;20300;-73
2020/12/31 11:29:14;;;;;;;2.63;2.42;;;2.70;1.00;;;;;;4960056;28;20226;-72
2020/12/31 11:31:41;;;;;;;3.53;2.47;;;2.70;1.00;;;;;;4962832;28;20335;-73
2020/12/31 11:34:24;;;;;;;2.33;2.13;;;2.90;1.00;;;;;;4951635;28;20312;-72
2020/12/31 11:36:51;;;;;;;2.75;2.30;;;2.90;1.00;;;;;;4944732;28;20212;-71
2020/12/31 11:39:19;;;;;;;3.20;2.85;;;2.90;1.00;;;;;;4947229;28;22355;-71
2020/12/31 11:41:48;;;;;;;2.88;2.53;;;2.90;1.00;;;;;;4947121;28;20248;-70
2020/12/31 11:44:16;;;;;;;2.40;2.05;;;3.10;1.00;;;;;;4950793;28;20212;-74
2020/12/31 11:46:47;;;;;;;2.38;2.20;;;3.20;1.00;;;;;;4955474;28;20769;-75
2020/12/31 11:49:15;;;;;;;3.63;2.22;;;3.40;1.00;;;;;;4943655;28;20929;-70
2020/12/31 11:51:43;;;;;;;2.40;2.05;;;3.70;1.00;;;;;;4951065;28;20286;-69
2020/12/31 11:54:10;;;;;;;2.13;1.92;;;3.60;1.00;;;;;;4963680;28;20209;-71
2020/12/31 11:56:39;;;;;;;2.60;2.25;;;3.50;63.90;;;;;;4947095;28;20221;-73
2020/12/31 11:59:07;;;;;;;2.63;2.00;;;3.40;1.00;;;;;;4945609;28;20938;-69
2020/12/31 12:01:35;;;;;;;5.43;3.00;;;3.50;99.90;;;;;;4941327;28;20252;-74
2020/12/31 12:04:03;;;;;;;3.05;2.70;;;3.30;99.90;;;;;;4951841;28;20596;-71
2020/12/31 12:06:30;;;;;;;2.60;2.40;;;3.40;99.90;;;;;;4936287;28;20212;-71
2020/12/31 12:08:58;;;;;;;2.38;2.17;;;3.60;99.90;;;;;;4933710;28;20222;-70
2020/12/31 12:11:29;;;;;;;2.67;2.47;;;3.70;1.00;;;;;;4937026;28;20233;-69
2020/12/31 12:13:57;;;;;;;2.70;2.50;;;3.60;1.00;;;;;;4950147;28;20601;-70
2020/12/31 12:16:25;;;;;;;2.80;2.60;;;3.70;99.90;;;;;;4946394;28;20671;-71
2020/12/31 12:18:53;;;;;;;2.53;2.20;;;3.60;99.90;;;;;;4947411;28;20275;-72
2020/12/31 12:21:20;;;;;;;3.47;2.42;;;3.70;1.00;;;;;;4960541;28;20246;-70
2020/12/31 12:23:47;;;;;;;2.58;2.38;;;3.70;99.90;;;;;;4947304;28;20267;-70
2020/12/31 12:26:17;;;;;;;4.53;3.88;;;3.50;1.00;;;;;;4941112;28;20223;-69
2020/12/31 12:28:44;;;;;;;3.30;2.50;;;3.40;99.90;;;;;;4945094;28;20215;-76
2020/12/31 12:31:11;;;;;;;2.85;2.55;;;3.30;99.90;;;;;;4938579;28;20562;-71
2020/12/31 12:33:39;;;;;;;2.65;2.00;;;3.30;99.90;;;;;;4938619;28;20215;-72
2020/12/31 12:36:11;;;;;;;2.25;2.05;;;3.30;99.90;;;;;;4954209;28;21891;-71
2020/12/31 12:38:38;;;;;;;2.42;2.22;;;3.10;99.90;;;;;;4939145;28;20477;-70
2020/12/31 12:41:05;;;;;;;3.33;2.47;;;3.10;1.00;;;;;;4939009;28;20659;-70
2020/12/31 12:43:32;;;;;;;2.53;2.33;;;3.10;1.00;;;;;;4933536;28;20209;-71
2020/12/31 12:46:00;;;;;;;4.50;2.90;;;3.30;1.00;;;;;;4940199;28;20234;-72
2020/12/31 12:48:27;;;;;;;3.63;3.03;;;3.20;1.00;;;;;;4933402;28;20217;-76
2020/12/31 12:50:54;;;;;;;3.50;2.70;;;3.30;1.00;;;;;;4932187;28;20319;-70
2020/12/31 12:53:22;;;;;;;2.50;2.13;;;3.40;1.00;;;;;;4935014;28;20871;-74
2020/12/31 12:55:49;;;;;;;2.53;2.30;;;3.50;99.90;;;;;;4949396;28;20756;-71
2020/12/31 12:58:16;;;;;;;2.50;2.30;;;3.70;99.90;;;;;;4933245;28;20868;-72
2020/12/31 13:00:43;;;;;;;2.60;2.30;;;3.70;99.90;;;;;;4933215;28;20821;-73
2020/12/31 13:03:10;;;;;;;1.83;1.73;;;3.60;99.90;;;;;;4937712;28;20771;-74
2020/12/31 13:05:37;;;;;;;3.95;2.60;;;3.60;99.90;;;;;;4939824;28;22057;-74
2020/12/31 13:08:05;;;;;;;2.40;2.20;;;3.50;99.90;;;;;;4939902;28;20215;-72
2020/12/31 13:10:34;;;;;;;2.75;2.20;;;3.50;99.90;;;;;;4944201;28;20578;-75
2020/12/31 13:13:01;;;;;;;2.45;1.80;;;3.50;99.90;;;;;;4941494;28;20594;-71